createdAt,value
2019-04-11T00:01:14.151Z,96512.28
2019-04-11T00:03:41.690Z,96504.59
2019-04-11T00:06:08.044Z,96509.98
2019-04-11T00:08:37.007Z,96512.06
2019-04-11T00:11:03.788Z,96509.19
2019-04-11T00:13:34.323Z,96505.19
2019-04-11T00:15:57.851Z,96507.52
2019-04-11T00:18:25.263Z,96504.84
2019-04-11T00:20:52.825Z,96510.08
2019-04-11T00:23:20.104Z,96506.67
2019-04-11T00:25:47.541Z,96504.47
2019-04-11T00:28:15.341Z,96505.44
2019-04-11T00:30:42.373Z,96506.86
2019-04-11T00:33:09.890Z,96495.59
2019-04-11T00:35:37.250Z,96494.25
2019-04-11T00:38:05.555Z,96494.92
2019-04-11T00:40:33.216Z,96494.58
2019-04-11T00:42:59.519Z,96489.27
2019-04-11T00:45:27.560Z,96490.17
2019-04-11T00:47:55.311Z,96496.05
2019-04-11T00:50:21.775Z,96485.31
2019-04-11T00:52:49.633Z,96493.20
2019-04-11T00:55:17.548Z,96479.72
2019-04-11T00:57:45.121Z,96477.26
2019-04-11T01:00:11.661Z,96480.30
2019-04-11T01:02:40.709Z,96475.89
2019-04-11T01:05:07.560Z,96478.30
2019-04-11T01:07:35.236Z,96474.11
2019-04-11T01:10:01.457Z,96472.48
2019-04-11T01:12:28.977Z,96483.06
2019-04-11T01:14:57.298Z,96481.57
2019-04-11T01:17:23.759Z,96483.91
2019-04-11T01:19:51.199Z,96479.14
2019-04-11T01:22:18.640Z,96479.30
2019-04-11T01:24:46.102Z,96481.16
2019-04-11T01:27:13.951Z,96476.32
2019-04-11T01:29:41.861Z,96477.87
2019-04-11T01:32:08.389Z,96476.54
2019-04-11T01:34:36.996Z,96479.22
2019-04-11T01:37:03.787Z,96479.47
2019-04-11T01:39:33.226Z,96473.41
2019-04-11T01:42:00.789Z,96482.88
2019-04-11T01:44:28.424Z,96474.12
2019-04-11T01:46:56.297Z,96480.27
2019-04-11T01:49:24.039Z,96479.91
2019-04-11T01:51:50.804Z,96480.33
2019-04-11T01:54:17.924Z,96478.66
2019-04-11T01:56:45.457Z,96483.36
2019-04-11T01:59:13.218Z,96482.53
2019-04-11T02:01:41.108Z,96473.20
2019-04-11T02:04:08.470Z,96484.92
2019-04-11T02:06:36.243Z,96475.25
2019-04-11T02:09:03.929Z,96475.91
2019-04-11T02:11:31.736Z,96477.11
2019-04-11T02:14:09.846Z,96476.91
2019-04-11T02:16:25.683Z,96481.45
2019-04-11T02:18:54.020Z,96476.91
2019-04-11T02:21:20.531Z,96474.70
2019-04-11T02:23:49.352Z,96473.05
2019-04-11T02:26:20.932Z,96469.63
2019-04-11T02:28:48.746Z,96476.72
2019-04-11T02:31:17.143Z,96475.19
2019-04-11T02:33:43.308Z,96476.91
2019-04-11T02:36:11.828Z,96479.02
2019-04-11T02:38:38.916Z,96483.95
2019-04-11T02:41:06.473Z,96480.84
2019-04-11T02:43:34.087Z,96482.89
2019-04-11T02:46:12.987Z,96491.45
2019-04-11T02:48:28.782Z,96491.98
2019-04-11T02:50:56.321Z,96484.84
2019-04-11T02:53:23.628Z,96494.36
2019-04-11T02:55:49.740Z,96490.53
2019-04-11T02:58:18.522Z,96490.23
2019-04-11T03:00:45.082Z,96488.47
2019-04-11T03:03:13.017Z,96489.74
2019-04-11T03:05:39.481Z,96481.63
2019-04-11T03:08:10.674Z,96488.23
2019-04-11T03:10:35.485Z,96487.81
2019-04-11T03:13:02.784Z,96495.33
2019-04-11T03:15:46.661Z,96489.36
2019-04-11T03:18:01.858Z,96488.70
2019-04-11T03:20:31.411Z,96486.67
2019-04-11T03:22:57.316Z,96494.61
2019-04-11T03:25:18.531Z,96489.81
2019-04-11T03:27:47.476Z,96490.23
2019-04-11T03:30:17.257Z,96491.27
2019-04-11T03:35:59.777Z,96488.30
2019-04-11T03:37:58.702Z,96485.19
2019-04-11T03:40:22.518Z,96488.88
2019-04-11T03:42:43.316Z,96487.02
2019-04-11T03:45:21.004Z,96486.95
2019-04-11T03:47:37.371Z,96490.61
2019-04-11T03:50:00.880Z,96490.13
2019-04-11T03:52:20.848Z,96486.27
2019-04-11T03:54:49.440Z,96491.27
2019-04-11T03:57:16.015Z,96496.82
2019-04-11T03:59:43.759Z,96494.47
2019-04-11T04:02:12.418Z,96493.61
2019-04-11T04:04:39.148Z,96494.02
2019-04-11T04:07:06.784Z,96490.50
2019-04-11T04:09:32.859Z,96493.23
2019-04-11T04:12:00.370Z,96495.37
2019-04-11T04:14:28.568Z,96501.28
2019-04-11T04:17:01.184Z,96502.55
2019-04-11T04:22:32.496Z,96505.44
2019-04-11T04:25:01.094Z,96512.11
2019-04-11T04:27:28.029Z,96507.22
2019-04-11T04:29:57.661Z,96514.48
2019-04-11T04:32:23.722Z,96510.91
2019-04-11T04:34:50.822Z,96511.03
2019-04-11T04:37:18.115Z,96505.61
2019-04-11T04:39:45.684Z,96509.41
2019-04-11T04:42:23.493Z,96507.57
2019-04-11T04:44:40.937Z,96509.53
2019-04-11T04:47:17.894Z,96509.70
2019-04-11T04:49:36.459Z,96505.49
2019-04-11T04:52:03.995Z,96509.02
2019-04-11T04:54:30.758Z,96511.64
2019-04-11T04:56:58.337Z,96508.75
2019-04-11T04:59:25.233Z,96504.92
2019-04-11T05:01:53.319Z,96509.59
2019-04-11T05:04:21.034Z,96502.62
2019-04-11T05:06:48.985Z,96512.14
2019-04-11T05:09:14.784Z,96512.97
2019-04-11T05:11:44.525Z,96511.94
2019-04-11T05:14:10.508Z,96518.05
2019-04-11T05:16:37.832Z,96519.00
2019-04-11T05:19:06.514Z,96516.79
2019-04-11T05:21:33.092Z,96517.52
2019-04-11T05:24:00.192Z,96512.51
2019-04-11T05:26:27.839Z,96518.48
2019-04-11T05:28:55.244Z,96516.75
2019-04-11T05:31:22.704Z,96529.73
2019-04-11T05:33:49.868Z,96532.02
2019-04-11T05:36:18.584Z,96526.70
2019-04-11T05:38:44.702Z,96531.84
2019-04-11T05:41:13.485Z,96533.98
2019-04-11T05:43:41.274Z,96525.80
2019-04-11T05:48:41.215Z,96526.45
2019-04-11T05:51:08.866Z,96530.16
2019-04-11T05:53:36.990Z,96531.53
2019-04-11T05:56:03.739Z,96541.64
2019-04-11T05:58:30.867Z,96535.08
2019-04-11T06:01:14.527Z,96534.42
2019-04-11T06:03:43.135Z,96537.33
2019-04-11T06:06:24.586Z,96532.69
2019-04-11T06:08:51.530Z,96543.34
2019-04-11T06:11:22.220Z,96533.42
2019-04-11T06:13:48.826Z,96537.37
2019-04-11T06:16:15.108Z,96540.70
2019-04-11T06:18:45.840Z,96544.77
2019-04-11T06:21:13.771Z,96540.70
2019-04-11T06:26:38.934Z,96553.61
2019-04-11T06:29:22.840Z,96544.58
2019-04-11T06:31:47.526Z,96544.77
2019-04-11T06:34:15.568Z,96542.36
2019-04-11T06:36:43.393Z,96550.27
2019-04-11T06:42:04.143Z,96553.65
2019-04-11T06:44:30.058Z,96554.07
2019-04-11T06:49:58.609Z,96561.59
2019-04-11T06:52:26.510Z,96563.43
2019-04-11T06:54:56.617Z,96569.64
2019-04-11T06:57:25.747Z,96561.18
2019-04-11T06:59:52.995Z,96575.79
2019-04-11T07:02:23.292Z,96571.21
2019-04-11T07:07:41.020Z,96569.84
2019-04-11T07:10:09.549Z,96575.20
2019-04-11T07:12:47.127Z,96577.77
2019-04-11T07:15:14.489Z,96571.85
2019-04-11T07:17:48.095Z,96572.77
2019-04-11T07:20:14.942Z,96575.25
2019-04-11T07:22:48.824Z,96579.19
2019-04-11T07:25:30.999Z,96573.05
2019-04-11T07:27:59.344Z,96580.04
2019-04-11T07:33:24.534Z,96569.91
2019-04-11T07:35:59.736Z,96572.53
2019-04-11T07:38:24.999Z,96565.17
2019-04-11T07:40:56.075Z,96572.41
2019-04-11T07:43:22.619Z,96573.66
2019-04-11T07:45:49.863Z,96577.98
2019-04-11T07:48:17.731Z,96576.80
2019-04-11T07:50:46.432Z,96571.27
2019-04-11T07:53:12.872Z,96580.03
2019-04-11T07:55:40.062Z,96570.55
2019-04-11T07:58:25.176Z,96569.20
2019-04-11T08:01:03.621Z,96570.36
2019-04-11T08:06:31.047Z,96563.55
2019-04-11T08:09:13.168Z,96572.31
2019-04-11T08:11:40.624Z,96572.24
2019-04-11T08:14:10.540Z,96579.50
2019-04-11T08:19:36.327Z,96583.08
2019-04-11T08:22:12.217Z,96580.19
2019-04-11T08:24:45.270Z,96580.53
2019-04-11T08:27:27.583Z,96595.20
2019-04-11T08:29:54.988Z,96586.06
2019-04-11T08:32:27.940Z,96583.87
2019-04-11T08:35:08.133Z,96587.33
2019-04-11T08:37:39.999Z,96587.53
2019-04-11T08:40:06.643Z,96589.39
2019-04-11T08:42:37.755Z,96586.60
2019-04-11T08:45:04.092Z,96584.75
2019-04-11T08:47:41.979Z,96591.02
2019-04-11T08:49:58.754Z,96589.18
2019-04-11T08:52:27.942Z,96596.47
2019-04-11T08:54:57.995Z,96593.64
2019-04-11T08:57:28.968Z,96594.75
2019-04-11T09:02:49.182Z,96595.78
2019-04-11T09:05:22.723Z,96600.11
2019-04-11T09:07:52.057Z,96592.52
2019-04-11T09:10:24.205Z,96605.45
2019-04-11T09:12:53.066Z,96602.78
2019-04-11T09:15:26.607Z,96608.84
2019-04-11T09:17:59.059Z,96614.71
2019-04-11T09:20:34.434Z,96611.67
2019-04-11T09:23:01.649Z,96605.84
2019-04-11T09:25:45.426Z,96603.33
2019-04-11T09:28:13.718Z,96608.70
2019-04-11T09:30:41.233Z,96600.98
2019-04-11T09:33:12.941Z,96607.70
2019-04-11T09:35:41.569Z,96600.31
2019-04-11T09:38:09.036Z,96612.53
2019-04-11T09:40:45.884Z,96604.39
2019-04-11T09:43:15.840Z,96602.70
2019-04-11T09:45:48.318Z,96610.02
2019-04-11T09:48:22.316Z,96612.63
2019-04-11T09:50:48.981Z,96611.67
2019-04-11T09:53:16.304Z,96621.97
2019-04-11T09:55:46.391Z,96616.34
2019-04-11T09:58:19.636Z,96614.67
2019-04-11T10:00:47.792Z,96593.77
2019-04-11T10:03:17.707Z,96603.98
2019-04-11T10:05:50.308Z,96602.69
2019-04-11T10:08:16.894Z,96595.30
2019-04-11T10:10:48.995Z,96605.22
2019-04-11T10:13:26.900Z,96593.33
2019-04-11T10:18:55.679Z,96592.33
2019-04-11T10:21:23.021Z,96602.63
2019-04-11T10:26:49.998Z,96596.00
2019-04-11T10:29:33.359Z,96596.70
2019-04-11T10:32:01.049Z,96587.04
2019-04-11T10:34:43.962Z,96587.72
2019-04-11T10:37:11.785Z,96592.05
2019-04-11T10:39:44.829Z,96602.03
2019-04-11T10:42:12.699Z,96574.77
2019-04-11T10:44:45.755Z,96595.78
2019-04-11T10:47:16.460Z,96590.72
2019-04-11T10:52:42.448Z,96599.22
2019-04-11T10:55:09.431Z,96585.52
2019-04-11T10:57:40.413Z,96598.80
2019-04-11T11:00:14.183Z,96595.32
2019-04-11T11:02:41.807Z,96598.44
2019-04-11T11:05:09.335Z,96604.84
2019-04-11T11:07:37.058Z,96602.28
2019-04-11T11:10:04.543Z,96608.80
2019-04-11T11:12:32.974Z,96617.76
2019-04-11T11:15:05.155Z,96608.46
2019-04-11T11:17:54.535Z,96601.84
2019-04-11T11:23:16.796Z,96602.78
2019-04-11T11:28:55.229Z,96608.70
2019-04-11T11:31:28.156Z,96616.82
2019-04-11T11:33:56.538Z,96607.73
2019-04-11T11:39:15.308Z,96605.90
2019-04-11T11:41:46.888Z,96610.84
2019-04-11T11:44:14.068Z,96609.28
2019-04-11T11:46:44.530Z,96600.61
2019-04-11T11:49:12.099Z,96604.42
2019-04-11T11:51:41.505Z,96610.82
2019-04-11T11:54:13.770Z,96614.31
2019-04-11T11:56:42.282Z,96607.63
2019-04-11T11:59:25.312Z,96602.05
2019-04-11T12:01:54.274Z,96620.12
2019-04-11T12:04:27.714Z,96610.23
2019-04-11T12:06:59.762Z,96616.94
2019-04-11T12:09:22.406Z,96610.98
2019-04-11T12:15:01.494Z,96598.12
2019-04-11T12:17:32.478Z,96589.64
2019-04-11T12:20:09.764Z,96596.50
2019-04-11T12:22:30.714Z,96599.63
2019-04-11T12:24:58.787Z,96612.78
2019-04-11T12:27:26.803Z,96607.34
2019-04-11T12:30:09.559Z,96605.28
2019-04-11T12:32:46.670Z,96601.23
2019-04-11T12:35:19.890Z,96604.98
2019-04-11T12:37:50.352Z,96599.40
2019-04-11T12:40:19.727Z,96604.95
2019-04-11T12:42:47.205Z,96602.91
2019-04-11T12:45:20.998Z,96599.49
2019-04-11T12:47:48.713Z,96599.89
2019-04-11T12:53:09.170Z,96602.75
2019-04-11T12:55:54.238Z,96605.41
2019-04-11T12:58:25.287Z,96610.02
2019-04-11T13:04:01.654Z,96600.02
2019-04-11T13:06:35.271Z,96611.29
2019-04-11T13:09:02.827Z,96606.73
2019-04-11T13:11:30.279Z,96606.25
2019-04-11T13:14:12.616Z,96607.47
2019-04-11T13:16:40.039Z,96611.41
2019-04-11T13:22:05.933Z,96596.22
2019-04-11T13:24:33.383Z,96593.98
2019-04-11T13:27:13.475Z,96590.25
2019-04-11T13:29:57.691Z,96592.33
2019-04-11T13:32:29.497Z,96592.73
2019-04-11T13:35:12.670Z,96589.09
2019-04-11T13:40:53.900Z,96588.27
2019-04-11T13:43:36.896Z,96570.11
2019-04-11T13:46:25.285Z,96585.46
2019-04-11T13:48:57.149Z,96585.77
2019-04-11T13:51:38.338Z,96582.95
2019-04-11T13:54:11.395Z,96582.85
2019-04-11T13:56:45.186Z,96589.06
2019-04-11T13:59:11.798Z,96583.47
2019-04-11T14:01:39.209Z,96583.47
2019-04-11T14:04:08.688Z,96593.52
2019-04-11T14:06:35.055Z,96577.00
2019-04-11T14:09:04.290Z,96566.91
2019-04-11T14:11:33.754Z,96586.95
2019-04-11T14:13:59.153Z,96582.95
2019-04-11T14:16:26.576Z,96586.76
2019-04-11T14:18:54.934Z,96591.98
2019-04-11T14:21:22.346Z,96589.41
2019-04-11T14:26:46.118Z,96589.55
2019-04-11T14:29:15.352Z,96599.69
2019-04-11T14:31:46.618Z,96593.94
2019-04-11T14:34:19.610Z,96592.30
2019-04-11T14:36:47.952Z,96598.60
2019-04-11T14:39:31.528Z,96601.88
2019-04-11T14:42:18.474Z,96603.61
2019-04-11T14:44:45.849Z,96606.31
2019-04-11T14:47:17.678Z,96611.28
2019-04-11T14:49:45.089Z,96616.50
2019-04-11T14:52:16.929Z,96616.55
2019-04-11T14:54:42.378Z,96620.12
2019-04-11T14:57:16.364Z,96622.52
2019-04-11T14:59:43.811Z,96620.41
2019-04-11T15:02:25.041Z,96621.12
2019-04-11T15:04:58.027Z,96623.20
2019-04-11T15:07:25.443Z,96620.70
2019-04-11T15:09:55.912Z,96617.89
2019-04-11T15:12:25.698Z,96625.96
2019-04-11T15:17:49.069Z,96637.41
2019-04-11T15:20:22.334Z,96639.17
2019-04-11T15:22:51.707Z,96627.41
2019-04-11T15:28:17.684Z,96638.80
2019-04-11T15:30:49.386Z,96645.50
2019-04-11T15:33:20.187Z,96649.11
2019-04-11T15:35:48.472Z,96644.40
2019-04-11T15:38:21.616Z,96648.78
2019-04-11T15:40:49.035Z,96646.75
2019-04-11T15:43:22.111Z,96642.17
2019-04-11T15:45:49.567Z,96649.89
2019-04-11T15:48:23.577Z,96663.50
2019-04-11T15:51:05.884Z,96662.63
2019-04-11T15:56:20.724Z,96672.04
2019-04-11T15:58:48.192Z,96670.23
2019-04-11T16:01:21.149Z,96649.91
2019-04-11T16:03:48.556Z,96667.86
2019-04-11T16:06:21.465Z,96674.94
2019-04-11T16:08:48.884Z,96679.38
2019-04-11T16:11:16.788Z,96687.09
2019-04-11T16:13:46.123Z,96679.66
2019-04-11T16:16:13.546Z,96686.77
2019-04-11T16:18:47.148Z,96691.00
2019-04-11T16:21:18.643Z,96700.33
2019-04-11T16:26:35.862Z,96705.91
2019-04-11T16:29:19.972Z,96706.60
2019-04-11T16:31:47.378Z,96725.11
2019-04-11T16:34:18.322Z,96726.13
2019-04-11T16:36:45.737Z,96718.20
2019-04-11T16:39:28.791Z,96727.61
2019-04-11T16:41:56.270Z,96725.90
2019-04-11T16:44:26.097Z,96720.50
2019-04-11T16:46:59.072Z,96726.75
2019-04-11T16:49:26.871Z,96728.82
2019-04-11T16:51:54.388Z,96731.11
2019-04-11T16:54:22.757Z,96733.13
2019-04-11T16:56:49.713Z,96730.31
2019-04-11T16:59:17.818Z,96725.08
2019-04-11T17:01:44.745Z,96729.11
2019-04-11T17:04:12.155Z,96732.17
2019-04-11T17:06:50.290Z,96726.89
2019-04-11T17:09:18.718Z,96724.75
2019-04-11T17:11:46.145Z,96713.92
2019-04-11T17:14:13.531Z,96735.99
2019-04-11T17:16:41.616Z,96738.97
2019-04-11T17:19:11.676Z,96735.56
2019-04-11T17:21:43.163Z,96738.50
2019-04-11T17:24:03.938Z,96746.63
2019-04-11T17:26:31.395Z,96745.61
2019-04-11T17:28:58.790Z,96741.42
2019-04-11T17:31:26.650Z,96742.85
2019-04-11T17:33:53.671Z,96750.44
2019-04-11T17:36:21.128Z,96747.61
2019-04-11T17:38:48.566Z,96757.73
2019-04-11T17:41:15.970Z,96749.79
2019-04-11T17:43:46.767Z,96753.90
2019-04-11T17:46:11.991Z,96751.03
2019-04-11T17:48:39.388Z,96756.22
2019-04-11T17:51:09.452Z,96762.54
2019-04-11T17:53:34.325Z,96765.75
2019-04-11T17:56:01.728Z,96764.19
2019-04-11T17:58:29.148Z,96755.80
2019-04-11T18:00:57.094Z,96761.53
2019-04-11T18:03:24.558Z,96770.55
2019-04-11T18:05:51.966Z,96763.22
2019-04-11T18:08:20.217Z,96763.64
2019-04-11T18:10:46.804Z,96767.16
2019-04-11T18:13:14.193Z,96766.81
2019-04-11T18:15:41.629Z,96772.92
2019-04-11T18:18:09.031Z,96775.47
2019-04-11T18:20:37.076Z,96776.54
2019-04-11T18:23:03.873Z,96777.98
2019-04-11T18:25:31.430Z,96782.30
2019-04-11T18:27:58.871Z,96785.42
2019-04-11T18:30:26.299Z,96785.41
2019-04-11T18:32:53.735Z,96793.77
2019-04-11T18:35:21.148Z,96791.92
2019-04-11T18:37:48.764Z,96798.78
2019-04-11T18:40:16.170Z,96792.00
2019-04-11T18:42:43.610Z,96793.77
2019-04-11T18:45:11.023Z,96791.34
2019-04-11T18:47:38.440Z,96794.69
2019-04-11T18:50:05.942Z,96802.22
2019-04-11T18:52:33.409Z,96808.61
2019-04-11T18:55:00.840Z,96803.40
2019-04-11T18:57:28.279Z,96800.44
2019-04-11T18:59:55.682Z,96805.24
2019-04-11T19:02:23.102Z,96807.16
2019-04-11T19:04:50.540Z,96807.89
2019-04-11T19:07:27.309Z,96807.22
2019-04-11T19:09:45.395Z,96818.95
2019-04-11T19:12:15.620Z,96816.11
2019-04-11T19:14:40.246Z,96814.92
2019-04-11T19:17:07.682Z,96809.19
2019-04-11T19:19:35.094Z,96816.08
2019-04-11T19:22:02.515Z,96813.04
2019-04-11T19:24:35.329Z,96822.19
2019-04-11T19:26:57.444Z,96821.25
2019-04-11T19:29:25.588Z,96821.90
2019-04-11T19:31:52.282Z,96826.09
2019-04-11T19:34:19.731Z,96822.25
2019-04-11T19:36:47.151Z,96827.73
2019-04-11T19:39:14.689Z,96824.47
2019-04-11T19:41:41.999Z,96828.63
2019-04-11T19:44:09.410Z,96830.86
2019-04-11T19:46:36.816Z,96835.14
2019-04-11T19:49:04.260Z,96826.41
2019-04-11T19:51:31.686Z,96830.54
2019-04-11T19:54:02.915Z,96831.66
2019-04-11T19:56:31.528Z,96832.72
2019-04-11T19:58:58.932Z,96823.80
2019-04-11T20:01:26.595Z,96821.72
2019-04-11T20:03:54.666Z,96817.25
2019-04-11T20:06:21.477Z,96821.18
2019-04-11T20:08:48.904Z,96818.94
2019-04-11T20:11:16.333Z,96817.56
2019-04-11T20:13:43.893Z,96811.94
2019-04-11T20:16:12.501Z,96805.06
2019-04-11T20:18:49.955Z,96804.05
2019-04-11T20:21:07.507Z,96809.48
2019-04-11T20:23:33.503Z,96810.28
2019-04-11T20:26:01.486Z,96808.21
2019-04-11T20:28:28.903Z,96803.64
2019-04-11T20:30:56.327Z,96816.43
2019-04-11T20:33:27.278Z,96811.50
2019-04-11T20:35:51.236Z,96808.78
2019-04-11T20:38:18.646Z,96813.72
2019-04-11T20:40:46.061Z,96809.27
2019-04-11T20:43:13.485Z,96817.30
2019-04-11T20:45:40.895Z,96814.29
2019-04-11T20:48:08.291Z,96828.30
2019-04-11T20:50:35.713Z,96820.69
2019-04-11T20:53:12.039Z,96829.70
2019-04-11T20:55:31.552Z,96831.49
2019-04-11T20:57:58.963Z,96824.94
2019-04-11T21:00:26.399Z,96830.25
2019-04-11T21:02:58.083Z,96823.98
2019-04-11T21:05:21.234Z,96830.70
2019-04-11T21:07:48.709Z,96824.78
2019-04-11T21:10:16.131Z,96828.88
2019-04-11T21:12:43.546Z,96823.95
2019-04-11T21:15:10.968Z,96828.52
2019-04-11T21:17:38.389Z,96829.58
2019-04-11T21:20:05.785Z,96832.52
2019-04-11T21:22:33.223Z,96833.60
2019-04-11T21:25:00.685Z,96826.02
2019-04-11T21:27:28.924Z,96836.13
2019-04-11T21:29:59.779Z,96838.74
2019-04-11T21:32:22.933Z,96842.52
2019-04-11T21:34:50.378Z,96840.05
2019-04-11T21:37:17.854Z,96832.92
2019-04-11T21:39:45.250Z,96829.38
2019-04-11T21:42:12.671Z,96834.71
2019-04-11T21:44:40.075Z,96833.14
2019-04-11T21:47:07.995Z,96835.41
2019-04-11T21:49:36.955Z,96836.66
2019-04-11T21:52:03.218Z,96838.60
2019-04-11T21:54:29.777Z,96830.83
2019-04-11T21:56:57.225Z,96841.53
2019-04-11T21:59:24.619Z,96839.75
2019-04-11T22:01:54.120Z,96848.51
2019-04-11T22:04:19.497Z,96833.73
2019-04-11T22:06:46.927Z,96839.95
2019-04-11T22:09:14.334Z,96832.98
2019-04-11T22:11:41.749Z,96835.34
2019-04-11T22:14:11.271Z,96844.45
2019-04-11T22:16:36.588Z,96841.09
2019-04-11T22:19:04.095Z,96840.84
2019-04-11T22:21:31.711Z,96840.27
2019-04-11T22:23:59.286Z,96837.80
2019-04-11T22:26:26.721Z,96826.42
2019-04-11T22:28:55.094Z,96838.44
2019-04-11T22:31:24.729Z,96835.08
2019-04-11T22:33:59.712Z,96825.96
2019-04-11T22:36:27.858Z,96840.08
2019-04-11T22:38:54.538Z,96829.31
2019-04-11T22:41:22.010Z,96837.67
2019-04-11T22:43:49.422Z,96824.67
2019-04-11T22:46:20.984Z,96828.97
2019-04-11T22:48:44.353Z,96821.32
2019-04-11T22:51:11.966Z,96829.59
2019-04-11T22:53:40.762Z,96836.50
2019-04-11T22:56:06.574Z,96838.29
2019-04-11T22:58:33.981Z,96831.54
2019-04-11T23:01:01.386Z,96833.27
2019-04-11T23:03:28.822Z,96846.15
2019-04-11T23:05:56.215Z,96835.58
2019-04-11T23:08:23.622Z,96847.19
2019-04-11T23:10:51.040Z,96844.58
2019-04-11T23:13:18.444Z,96842.02
2019-04-11T23:15:45.863Z,96834.63
2019-04-11T23:18:14.053Z,96840.32
2019-04-11T23:20:43.809Z,96845.03
2019-04-11T23:23:08.104Z,96837.74
2019-04-11T23:25:35.527Z,96841.77
2019-04-11T23:28:02.939Z,96835.05
2019-04-11T23:30:30.355Z,96851.23
2019-04-11T23:32:57.778Z,96853.62
2019-04-11T23:35:25.178Z,96857.91
2019-04-11T23:37:52.653Z,96849.16
2019-04-11T23:40:20.980Z,96853.08
2019-04-11T23:42:47.820Z,96859.48
2019-04-11T23:45:14.404Z,96861.14
2019-04-11T23:47:41.817Z,96860.80
2019-04-11T23:50:09.224Z,96859.78
2019-04-11T23:52:36.663Z,96865.91
2019-04-11T23:55:04.095Z,96867.39
2019-04-11T23:57:31.827Z,96864.50
2019-04-11T23:59:59.782Z,96863.73
